Time;durP1;ratioP1;P1;durP2;ratioP2;P2;SDS_P1;SDS_P2;PMS_P1;PMS_P2;Temp;Humidity;BMP_temperature;BMP_pressure;BME280_temperature;BME280_humidity;BME280_pressure;Samples;Min_cycle;Max_cycle;Signal;HPM_P1;HPM_P2
2022/08/13 00:17:12;;;;;;;1.30;0.50;;;9.90;99.90;;;;;;21047974;28;20485;-52
2022/08/13 00:27:17;;;;;;;1.10;0.43;;;9.90;99.90;;;;;;21048213;28;20128;-55
2022/08/13 00:37:22;;;;;;;0.70;0.45;;;10.00;99.90;;;;;;21047889;28;20121;-59
2022/08/13 00:57:50;;;;;;;0.80;0.70;;;9.90;99.90;;;;;;21059744;28;20165;-52
2022/08/13 01:07:54;;;;;;;0.63;0.50;;;10.00;99.90;;;;;;21030111;28;20032;-59
2022/08/13 01:17:58;;;;;;;0.80;0.50;;;9.70;99.90;;;;;;21046214;28;20036;-55
2022/08/13 01:28:01;;;;;;;3.63;0.60;;;9.60;99.90;;;;;;21054633;28;20032;-59
2022/08/13 01:38:05;;;;;;;1.10;0.50;;;9.80;99.90;;;;;;21060387;28;20121;-59
2022/08/13 01:58:29;;;;;;;0.90;0.77;;;9.90;99.90;;;;;;20882701;28;20037;-56
2022/08/13 02:08:36;;;;;;;1.35;0.70;;;9.90;99.90;;;;;;20846816;28;20107;-54
2022/08/13 02:18:39;;;;;;;2.30;0.60;;;9.70;99.90;;;;;;20870852;28;20044;-59
2022/08/13 02:28:43;;;;;;;1.15;0.73;;;9.70;99.90;;;;;;20977943;28;20048;-55
2022/08/13 02:38:54;;;;;;;0.70;0.60;;;9.90;99.90;;;;;;21054837;28;20048;-59
2022/08/13 02:48:58;;;;;;;1.00;0.60;;;10.00;99.90;;;;;;21054483;28;20089;-56
2022/08/13 02:59:02;;;;;;;1.85;0.73;;;9.90;99.90;;;;;;21053869;28;20040;-55
2022/08/13 03:09:05;;;;;;;1.10;0.80;;;9.80;99.90;;;;;;21053157;28;20036;-60
2022/08/13 03:19:08;;;;;;;1.33;0.50;;;9.80;99.90;;;;;;21052142;28;20036;-55
2022/08/13 03:29:11;;;;;;;0.90;0.63;;;9.90;99.90;;;;;;21051287;28;20035;-55
2022/08/13 03:39:14;;;;;;;1.13;0.80;;;10.00;99.90;;;;;;21082242;28;20047;-54
2022/08/13 03:49:19;;;;;;;1.27;0.75;;;10.10;99.90;;;;;;21055111;28;20066;-54
2022/08/13 03:59:22;;;;;;;2.00;1.13;;;9.80;99.90;;;;;;21064512;28;20050;-60
2022/08/13 04:09:25;;;;;;;0.80;0.70;;;9.90;99.90;;;;;;21011767;28;20168;-52
2022/08/13 04:19:27;;;;;;;0.95;0.75;;;10.00;99.90;;;;;;21048360;28;20093;-59
2022/08/13 04:29:31;;;;;;;0.80;0.70;;;10.00;99.90;;;;;;21047846;28;20044;-59
2022/08/13 04:39:34;;;;;;;0.90;0.60;;;10.10;99.90;;;;;;21047923;28;20078;-55
2022/08/13 04:49:37;;;;;;;1.45;0.70;;;10.10;99.90;;;;;;21047175;28;20105;-60
2022/08/13 04:59:39;;;;;;;2.47;0.73;;;10.20;99.90;;;;;;21051209;28;20382;-55
2022/08/13 05:09:42;;;;;;;1.58;0.70;;;10.50;99.90;;;;;;21017518;28;20040;-58
2022/08/13 05:19:47;;;;;;;1.52;0.70;;;10.80;99.90;;;;;;21061465;28;20043;-59
2022/08/13 05:29:51;;;;;;;0.65;0.60;;;10.90;99.90;;;;;;21060888;28;20032;-59
2022/08/13 05:39:53;;;;;;;1.20;0.55;;;11.00;99.90;;;;;;21060909;28;20048;-59
2022/08/13 05:49:56;;;;;;;2.00;0.85;;;11.40;99.90;;;;;;21060565;28;20061;-60
2022/08/13 06:10:19;;;;;;;0.75;0.70;;;11.50;99.90;;;;;;21131180;28;20036;-60
2022/08/13 06:31:07;;;;;;;2.60;1.08;;;11.90;99.90;;;;;;20642433;23;20121;-53
2022/08/13 06:41:12;;;;;;;1.50;1.00;;;12.30;99.90;;;;;;20447271;23;20057;-44
2022/08/13 06:51:15;;;;;;;0.90;0.60;;;16.20;99.90;;;;;;20486914;23;20080;-59
2022/08/13 07:01:20;;;;;;;1.40;0.47;;;18.30;97.80;;;;;;20385184;23;20108;-59
2022/08/13 07:11:30;;;;;;;0.60;0.50;;;17.80;95.00;;;;;;20448447;23;20053;-62
2022/08/13 07:21:34;;;;;;;3.05;0.40;;;17.00;98.40;;;;;;20453475;23;20060;-60
2022/08/13 07:31:47;;;;;;;0.75;0.50;;;17.40;96.60;;;;;;20455481;23;20064;-60
2022/08/13 07:41:51;;;;;;;1.85;0.43;;;18.00;96.00;;;;;;20407489;23;20570;-59
2022/08/13 07:51:55;;;;;;;0.47;0.40;;;18.30;95.10;;;;;;20484374;23;20104;-61
2022/08/13 08:01:58;;;;;;;0.77;0.52;;;18.70;93.10;;;;;;20523011;23;20091;-60
2022/08/13 08:22:30;;;;;;;1.52;0.73;;;18.10;94.40;;;;;;20421019;23;20052;-59
2022/08/13 08:32:35;;;;;;;1.00;0.60;;;17.90;92.30;;;;;;20495039;23;20116;-60
2022/08/13 08:42:40;;;;;;;0.95;0.70;;;18.00;92.90;;;;;;20462558;23;20093;-61
2022/08/13 09:03:05;;;;;;;0.85;0.60;;;19.60;90.00;;;;;;20391606;23;20061;-46
2022/08/13 09:13:08;;;;;;;1.30;0.50;;;19.80;86.30;;;;;;20464255;23;20120;-61
2022/08/13 09:23:14;;;;;;;1.83;0.98;;;19.40;88.80;;;;;;20401486;23;20065;-51
2022/08/13 09:33:23;;;;;;;0.73;0.60;;;19.80;86.70;;;;;;20410567;23;20116;31
2022/08/13 09:43:47;;;;;;;2.95;1.50;;;20.20;78.20;;;;;;20326809;23;20104;-59
2022/08/13 09:53:50;;;;;;;0.85;0.50;;;20.10;82.30;;;;;;20666320;23;20052;-60
2022/08/13 10:03:53;;;;;;;0.90;0.90;;;21.00;80.40;;;;;;20931546;23;20119;-61
2022/08/13 10:13:57;;;;;;;0.90;0.80;;;22.10;91.90;;;;;;20809494;23;20392;-64
2022/08/13 10:24:20;;;;;;;1.88;0.70;;;22.70;91.50;;;;;;20477880;23;20111;-48
2022/08/13 10:34:24;;;;;;;0.70;0.65;;;22.50;91.50;;;;;;20698628;23;20060;-48
2022/08/13 10:44:27;;;;;;;1.35;0.70;;;22.40;89.60;;;;;;20737092;23;20057;-64
2022/08/13 10:54:35;;;;;;;1.00;0.70;;;22.60;89.70;;;;;;20595458;23;20053;-55
2022/08/13 11:15:26;;;;;;;0.93;0.70;;;22.90;83.50;;;;;;21466446;22;20892;-66
2022/08/13 11:25:30;;;;;;;0.82;0.60;;;23.50;90.70;;;;;;21143501;23;20113;-57
2022/08/13 11:35:36;;;;;;;0.70;0.70;;;23.70;90.50;;;;;;21560612;22;20441;-66
2022/08/13 11:45:39;;;;;;;1.02;0.90;;;24.20;90.80;;;;;;21224837;23;20396;-58
2022/08/13 11:56:20;;;;;;;1.27;0.75;;;24.20;91.70;;;;;;21122844;23;20112;-59
2022/08/13 12:06:32;;;;;;;2.15;0.75;;;23.80;89.70;;;;;;21138346;23;20058;31
2022/08/13 12:16:37;;;;;;;2.83;1.10;;;24.00;89.80;;;;;;20972292;23;20102;-53
2022/08/13 12:26:45;;;;;;;2.35;0.90;;;24.20;88.40;;;;;;21526214;23;20058;-66
2022/08/13 12:36:52;;;;;;;1.02;0.88;;;24.30;90.70;;;;;;21223928;23;20101;-57
2022/08/13 12:58:30;;;;;;;1.17;0.70;;;24.50;87.70;;;;;;21745417;23;20087;-51
2022/08/13 13:19:27;;;;;;;2.90;0.90;;;25.80;88.10;;;;;;20209294;23;19977;-52
2022/08/13 13:41:11;;;;;;;4.30;0.90;;;25.50;84.60;;;;;;21514917;23;20579;-56
2022/08/13 13:51:15;;;;;;;0.80;0.70;;;25.30;88.40;;;;;;21199935;23;20119;-59
2022/08/13 14:12:05;;;;;;;1.25;0.98;;;24.20;85.20;;;;;;21363202;23;20066;31
2022/08/13 14:22:09;;;;;;;3.38;0.80;;;24.30;87.30;;;;;;20754513;23;20120;-60
2022/08/13 14:43:29;;;;;;;1.35;0.90;;;24.60;85.30;;;;;;21373226;23;20055;-63
2022/08/13 14:53:34;;;;;;;1.40;0.65;;;24.70;85.30;;;;;;20581071;23;20145;-61
2022/08/13 15:03:42;;;;;;;1.40;0.68;;;24.30;84.30;;;;;;20525501;28;20043;-61
2022/08/13 15:13:46;;;;;;;1.33;0.53;;;23.70;82.80;;;;;;20494014;28;20142;-60
2022/08/13 15:23:53;;;;;;;3.95;0.77;;;23.30;85.50;;;;;;20592382;23;20709;-59
2022/08/13 15:33:55;;;;;;;;;;;23.50;83.80;;;;;;20576278;28;20110;-59
2022/08/13 15:43:58;;;;;;;1.00;0.80;;;23.00;84.20;;;;;;20744336;23;20346;-54
2022/08/13 15:54:15;;;;;;;0.70;0.70;;;23.00;81.20;;;;;;20752057;23;20055;-65
2022/08/13 16:04:20;;;;;;;2.90;0.70;;;22.00;84.40;;;;;;20801882;23;20197;-52
2022/08/13 16:14:24;;;;;;;0.60;0.60;;;23.00;80.70;;;;;;20739915;23;21040;-65
2022/08/13 16:24:28;;;;;;;0.85;0.70;;;22.80;80.80;;;;;;20709237;23;20486;-64
2022/08/13 16:34:32;;;;;;;1.90;0.90;;;22.70;80.60;;;;;;20811666;23;20054;-51
2022/08/13 16:44:37;;;;;;;2.88;0.90;;;20.50;86.40;;;;;;20918733;23;20051;-68
2022/08/13 16:54:53;;;;;;;1.15;0.90;;;18.40;91.80;;;;;;20847743;23;20042;-67
2022/08/13 17:15:52;;;;;;;2.30;1.65;;;16.50;94.60;;;;;;20784388;23;20046;-58
2022/08/13 17:26:01;;;;;;;2.00;1.52;;;16.00;97.20;;;;;;20866354;23;20050;-53
2022/08/13 17:36:05;;;;;;;2.40;1.88;;;15.70;99.10;;;;;;21083368;23;20054;-66
2022/08/13 17:46:20;;;;;;;2.30;1.70;;;15.40;99.90;;;;;;20969277;23;20086;-53
2022/08/13 17:56:26;;;;;;;4.10;2.28;;;15.30;99.90;;;;;;21037924;23;20049;-47
2022/08/13 18:06:32;;;;;;;3.08;2.60;;;15.10;99.90;;;;;;21077094;23;20043;-53
2022/08/13 18:16:40;;;;;;;4.35;3.40;;;14.80;99.90;;;;;;20822438;23;20042;-56
2022/08/13 18:26:51;;;;;;;4.88;3.67;;;14.50;99.90;;;;;;20921681;23;20094;31
2022/08/13 18:36:54;;;;;;;7.03;2.55;;;14.30;99.90;;;;;;20839745;23;20077;-52
2022/08/13 18:46:57;;;;;;;4.38;2.75;;;14.10;99.90;;;;;;20974905;23;20095;-53
2022/08/13 18:57:05;;;;;;;3.83;2.38;;;13.90;99.90;;;;;;20902963;23;20026;-66
2022/08/13 19:07:29;;;;;;;7.40;4.13;;;13.80;99.90;;;;;;21239925;23;20412;31
2022/08/13 19:17:32;;;;;;;4.50;3.65;;;13.70;99.90;;;;;;20760558;23;20063;-67
2022/08/13 19:27:38;;;;;;;4.93;3.00;;;13.70;99.90;;;;;;20861348;23;15967463;-67
2022/08/13 19:37:49;;;;;;;4.47;3.03;;;13.80;99.90;;;;;;21244807;23;20046;-64
2022/08/13 19:48:25;;;;;;;4.45;3.92;;;13.90;99.90;;;;;;18982956;23;10001018;31
2022/08/13 19:58:29;;;;;;;8.27;4.43;;;13.70;99.90;;;;;;22098719;23;20188;-67
2022/08/13 20:08:46;;;;;;;6.22;3.63;;;13.60;99.90;;;;;;20203130;23;10001632;-66
2022/08/13 20:19:07;;;;;;;5.00;3.40;;;13.20;99.90;;;;;;20807010;23;20134;-64
2022/08/13 20:29:17;;;;;;;7.97;3.72;;;13.10;99.90;;;;;;20701788;23;20091;-64
2022/08/13 20:39:20;;;;;;;;;;;12.90;99.90;;;;;;20668395;23;20614;-64
2022/08/13 20:49:25;;;;;;;4.55;3.72;;;12.80;99.90;;;;;;20678798;23;19923;-60
2022/08/13 20:59:37;;;;;;;4.97;2.97;;;12.90;99.90;;;;;;21398503;23;20027;31
2022/08/13 21:09:41;;;;;;;9.52;4.28;;;13.20;99.90;;;;;;21126997;23;20071;-66
2022/08/13 21:19:48;;;;;;;4.70;3.67;;;13.40;99.90;;;;;;21144970;23;20323;-53
2022/08/13 21:29:56;;;;;;;6.82;4.40;;;13.60;99.90;;;;;;20980818;23;20091;-59
2022/08/13 21:39:58;;;;;;;6.35;4.90;;;13.80;99.90;;;;;;20668898;23;20052;-45
2022/08/13 21:50:03;;;;;;;5.78;3.05;;;13.70;99.90;;;;;;19937143;23;10000485;-52
2022/08/13 22:00:11;;;;;;;4.68;3.97;;;13.40;99.90;;;;;;20678749;23;20494;-60
2022/08/13 22:10:15;;;;;;;9.07;6.82;;;13.30;99.90;;;;;;20669260;23;20055;-62
2022/08/13 22:20:18;;;;;;;5.65;4.50;;;13.80;99.90;;;;;;20725391;23;20102;-52
2022/08/13 22:40:41;;;;;;;4.90;3.60;;;14.50;99.90;;;;;;20691229;23;20063;-51
2022/08/13 22:50:45;;;;;;;4.20;3.58;;;14.10;99.90;;;;;;20628424;23;20051;-50
2022/08/13 23:00:49;;;;;;;4.75;4.20;;;13.50;99.90;;;;;;20726872;23;20409;-46
2022/08/13 23:10:52;;;;;;;5.05;3.92;;;12.90;99.90;;;;;;20622227;23;20079;-52
2022/08/13 23:20:55;;;;;;;5.43;4.55;;;12.50;99.90;;;;;;20668529;23;20047;-53
2022/08/13 23:30:58;;;;;;;5.28;4.30;;;12.60;99.90;;;;;;20704528;23;20512;-62
2022/08/13 23:41:04;;;;;;;5.35;4.60;;;12.60;99.90;;;;;;20644194;23;20055;-53
2022/08/13 23:51:06;;;;;;;6.95;4.07;;;12.60;99.90;;;;;;20699646;23;20060;-51
